createdAt,value
2022-08-20T00:01:01.506Z,9.278356
2022-08-20T00:01:55.350Z,9.278094
2022-08-20T00:02:54.308Z,9.278358
2022-08-20T00:03:54.315Z,9.278307
2022-08-20T00:04:54.276Z,9.278127
2022-08-20T00:05:56.698Z,9.278264
2022-08-20T00:06:54.234Z,9.278419
2022-08-20T00:07:54.315Z,9.278454
2022-08-20T00:08:54.220Z,9.278392
2022-08-20T00:09:54.176Z,9.278341
2022-08-20T00:10:55.727Z,9.278208
2022-08-20T00:11:55.214Z,9.278184
2022-08-20T00:12:54.137Z,9.278453
2022-08-20T00:13:54.134Z,9.278327
2022-08-20T00:14:54.086Z,9.278310
2022-08-20T00:15:54.066Z,9.278345
2022-08-20T00:16:54.053Z,9.278305
2022-08-20T00:17:55.194Z,9.278302
2022-08-20T00:18:54.062Z,9.278302
2022-08-20T00:19:54.031Z,9.278280
2022-08-20T00:20:53.976Z,9.278251
2022-08-20T00:21:58.188Z,9.278283
2022-08-20T00:22:53.941Z,9.278346
2022-08-20T00:23:53.963Z,9.278352
2022-08-20T00:24:53.912Z,9.278316
2022-08-20T00:25:53.904Z,9.278270
2022-08-20T00:26:53.882Z,9.278411
2022-08-20T00:27:53.870Z,9.278382
2022-08-20T00:28:53.878Z,9.278386
2022-08-20T00:29:53.827Z,9.278337
2022-08-20T00:30:53.826Z,9.278314
2022-08-20T00:31:53.794Z,9.278279
2022-08-20T00:32:53.825Z,9.278308
2022-08-20T00:33:53.780Z,9.278354
2022-08-20T00:34:53.737Z,9.278381
2022-08-20T00:35:53.721Z,9.278238
2022-08-20T00:36:53.699Z,9.278202
2022-08-20T00:37:56.342Z,9.278197
2022-08-20T00:38:54.704Z,9.278378
2022-08-20T00:39:53.712Z,9.278393
2022-08-20T00:40:53.644Z,9.278383
2022-08-20T00:41:53.675Z,9.278416
2022-08-20T00:42:53.665Z,9.278417
2022-08-20T00:43:53.615Z,9.278363
2022-08-20T00:44:53.589Z,9.278335
2022-08-20T00:45:53.547Z,9.278399
2022-08-20T00:46:53.556Z,9.278372
2022-08-20T00:47:53.548Z,9.278315
2022-08-20T00:48:53.518Z,9.278481
2022-08-20T00:49:53.486Z,9.278329
2022-08-20T00:50:53.470Z,9.278296
2022-08-20T00:51:53.442Z,9.278409
2022-08-20T00:52:53.614Z,9.278360
2022-08-20T00:53:53.506Z,9.278266
2022-08-20T00:54:53.392Z,9.278260
2022-08-20T00:55:53.367Z,9.278346
2022-08-20T00:56:53.356Z,9.278278
2022-08-20T00:58:00.897Z,9.278261
2022-08-20T00:58:54.324Z,9.278316
2022-08-20T00:59:53.315Z,9.278261
2022-08-20T01:00:53.288Z,9.278308
2022-08-20T01:01:56.185Z,9.278344
2022-08-20T01:02:53.372Z,9.278294
2022-08-20T01:03:53.264Z,9.278335
2022-08-20T01:04:53.221Z,9.278357
2022-08-20T01:05:53.212Z,9.278350
2022-08-20T01:06:53.186Z,9.278358
2022-08-20T01:07:53.215Z,9.278333
2022-08-20T01:08:53.149Z,9.278348
2022-08-20T01:09:58.858Z,9.278276
2022-08-20T01:10:54.109Z,9.278268
2022-08-20T01:11:53.094Z,9.278290
2022-08-20T01:12:58.997Z,9.278296
2022-08-20T01:13:54.100Z,9.278259
2022-08-20T01:14:53.105Z,9.278280
2022-08-20T01:15:53.042Z,9.278308
2022-08-20T01:16:53.018Z,9.278336
2022-08-20T01:17:52.996Z,9.278327
2022-08-20T01:18:53.056Z,9.278242
2022-08-20T01:19:52.971Z,9.278275
2022-08-20T01:20:52.950Z,9.278295
2022-08-20T01:21:52.935Z,9.278200
2022-08-20T01:22:52.957Z,9.278081
2022-08-20T01:23:52.931Z,9.278240
2022-08-20T01:24:52.876Z,9.278215
2022-08-20T01:25:52.895Z,9.278537
2022-08-20T01:26:52.847Z,9.278343
2022-08-20T01:27:55.182Z,9.278289
2022-08-20T01:28:52.851Z,9.278398
2022-08-20T01:29:52.806Z,9.278386
2022-08-20T01:30:52.770Z,9.278367
2022-08-20T01:31:52.769Z,9.278300
2022-08-20T01:32:52.764Z,9.278246
2022-08-20T01:33:52.761Z,9.278249
2022-08-20T01:34:52.719Z,9.278244
2022-08-20T01:35:52.679Z,9.278233
2022-08-20T01:36:52.668Z,9.278322
2022-08-20T01:37:52.662Z,9.278253
2022-08-20T01:38:54.777Z,9.278209
2022-08-20T01:39:52.660Z,9.278259
2022-08-20T01:40:52.593Z,9.278266
2022-08-20T01:41:52.598Z,9.278267
2022-08-20T01:42:58.758Z,9.278260
2022-08-20T01:43:53.574Z,9.278265
2022-08-20T01:44:52.525Z,9.278289
2022-08-20T01:45:52.516Z,9.278296
2022-08-20T01:46:52.495Z,9.278261
2022-08-20T01:47:52.543Z,9.278265
2022-08-20T01:48:52.496Z,9.278295
2022-08-20T01:49:52.441Z,9.278313
2022-08-20T01:50:52.419Z,9.278291
2022-08-20T01:51:52.403Z,9.278313
2022-08-20T01:52:52.460Z,9.278310
2022-08-20T01:53:52.410Z,9.278291
2022-08-20T01:54:52.369Z,9.278297
2022-08-20T01:55:52.343Z,9.278253
2022-08-20T01:56:52.333Z,9.278275
2022-08-20T01:57:52.368Z,9.278314
2022-08-20T01:58:57.297Z,9.278302
2022-08-20T01:59:53.279Z,9.278325
2022-08-20T02:00:52.262Z,9.278410
2022-08-20T02:01:52.308Z,9.278487
2022-08-20T02:02:52.225Z,9.278607
2022-08-20T02:03:52.236Z,9.278260
2022-08-20T02:04:52.192Z,9.278261
2022-08-20T02:05:52.171Z,9.278261
2022-08-20T02:06:56.638Z,9.278311
2022-08-20T02:07:53.133Z,9.278147
2022-08-20T02:08:52.161Z,9.278276
2022-08-20T02:09:52.188Z,9.278364
2022-08-20T02:10:52.086Z,9.278368
2022-08-20T02:11:52.082Z,9.278379
2022-08-20T02:12:52.134Z,9.278356
2022-08-20T02:13:52.081Z,9.278440
2022-08-20T02:14:52.021Z,9.278359
2022-08-20T02:15:52.009Z,9.278312
2022-08-20T02:16:54.816Z,9.278201
2022-08-20T02:17:52.979Z,9.278341
2022-08-20T02:18:51.989Z,9.278377
2022-08-20T02:19:51.958Z,9.278358
2022-08-20T02:20:51.944Z,9.278270
2022-08-20T02:21:51.911Z,9.278232
2022-08-20T02:22:52.026Z,9.278309
2022-08-20T02:23:51.909Z,9.278347
2022-08-20T02:24:51.842Z,9.278391
2022-08-20T02:25:51.847Z,9.278419
2022-08-20T02:26:51.806Z,9.278299
2022-08-20T02:27:51.873Z,9.278262
2022-08-20T02:28:51.824Z,9.278093
2022-08-20T02:29:51.759Z,9.278339
2022-08-20T02:30:51.759Z,9.278409
2022-08-20T02:32:25.064Z,9.278501
2022-08-20T02:32:52.785Z,9.278338
2022-08-20T02:34:18.084Z,9.278265
2022-08-20T02:34:52.723Z,9.278281
2022-08-20T02:35:51.797Z,9.278321
2022-08-20T02:36:51.723Z,9.278430
2022-08-20T02:37:51.717Z,9.278378
2022-08-20T02:38:51.758Z,9.278285
2022-08-20T02:39:51.702Z,9.278342
2022-08-20T02:40:51.572Z,9.278453
2022-08-20T02:41:51.552Z,9.278452
2022-08-20T02:42:51.592Z,9.278395
2022-08-20T02:43:51.553Z,9.278395
2022-08-20T02:44:51.503Z,9.278382
2022-08-20T02:45:51.476Z,9.278326
2022-08-20T02:46:51.464Z,9.278308
2022-08-20T02:47:51.442Z,9.278204
2022-08-20T02:48:51.468Z,9.278264
2022-08-20T02:49:51.425Z,9.278338
2022-08-20T02:50:51.403Z,9.278339
2022-08-20T02:51:51.387Z,9.278402
2022-08-20T02:52:52.127Z,9.278456
2022-08-20T02:53:51.444Z,9.278185
2022-08-20T02:54:51.328Z,9.278295
2022-08-20T02:55:51.311Z,9.278377
2022-08-20T02:56:51.288Z,9.278316
2022-08-20T02:57:51.316Z,9.278291
2022-08-20T02:58:51.290Z,9.278325
2022-08-20T02:59:51.248Z,9.278289
2022-08-20T03:00:51.215Z,9.278392
2022-08-20T03:01:56.660Z,9.278355
2022-08-20T03:02:52.260Z,9.278303
2022-08-20T03:03:51.212Z,9.278290
2022-08-20T03:04:51.179Z,9.278314
2022-08-20T03:05:51.138Z,9.278325
2022-08-20T03:06:51.113Z,9.278358
2022-08-20T03:07:51.091Z,9.278371
2022-08-20T03:08:52.123Z,9.278368
2022-08-20T03:09:51.062Z,9.278341
2022-08-20T03:10:51.034Z,9.278334
2022-08-20T03:11:51.029Z,9.278281
2022-08-20T03:12:51.078Z,9.278223
2022-08-20T03:13:51.039Z,9.278343
2022-08-20T03:14:50.987Z,9.278360
2022-08-20T03:15:54.161Z,9.278301
2022-08-20T03:16:51.937Z,9.278279
2022-08-20T03:17:50.935Z,9.278328
2022-08-20T03:18:51.992Z,9.278428
2022-08-20T03:19:50.959Z,9.278397
2022-08-20T03:20:52.072Z,9.278515
2022-08-20T03:21:50.844Z,9.278380
2022-08-20T03:22:50.878Z,9.278262
2022-08-20T03:23:50.874Z,9.278345
2022-08-20T03:24:50.802Z,9.278211
2022-08-20T03:25:50.808Z,9.278305
2022-08-20T03:26:50.837Z,9.278294
2022-08-20T03:27:54.410Z,9.278255
2022-08-20T03:28:50.772Z,9.278292
2022-08-20T03:29:50.703Z,9.278240
2022-08-20T03:30:50.689Z,9.278284
2022-08-20T03:31:50.668Z,9.278324
2022-08-20T03:32:50.722Z,9.278347
2022-08-20T03:33:52.980Z,9.278290
2022-08-20T03:34:50.616Z,9.278281
2022-08-20T03:35:50.611Z,9.278273
2022-08-20T03:36:50.581Z,9.278385
2022-08-20T03:37:50.624Z,9.278398
2022-08-20T03:38:50.591Z,9.278334
2022-08-20T03:39:50.606Z,9.278378
2022-08-20T03:40:50.519Z,9.278245
2022-08-20T03:41:50.516Z,9.278381
2022-08-20T03:42:50.514Z,9.278335
2022-08-20T03:43:50.509Z,9.278342
2022-08-20T03:44:59.009Z,9.278313
2022-08-20T03:45:51.439Z,9.278280
2022-08-20T03:46:50.404Z,9.278318
2022-08-20T03:47:50.469Z,9.278287
2022-08-20T03:48:50.448Z,9.278365
2022-08-20T03:49:51.361Z,9.278352
2022-08-20T03:50:50.435Z,9.278311
2022-08-20T03:51:57.523Z,9.278279
2022-08-20T03:52:51.382Z,9.278330
2022-08-20T03:53:50.325Z,9.278296
2022-08-20T03:54:50.276Z,9.278243
2022-08-20T03:55:54.005Z,9.278378
2022-08-20T03:56:50.230Z,9.278326
2022-08-20T03:57:50.273Z,9.278367
2022-08-20T03:58:50.228Z,9.278296
2022-08-20T03:59:54.859Z,9.278301
2022-08-20T04:00:51.161Z,9.278216
2022-08-20T04:01:50.158Z,9.278378
2022-08-20T04:02:50.143Z,9.278263
2022-08-20T04:03:54.998Z,9.278189
2022-08-20T04:04:52.112Z,9.278085
2022-08-20T04:05:50.069Z,9.278161
2022-08-20T04:06:50.065Z,9.278263
2022-08-20T04:07:50.100Z,9.278254
2022-08-20T04:08:50.050Z,9.278257
2022-08-20T04:09:50.019Z,9.278293
2022-08-20T04:10:50.122Z,9.278388
2022-08-20T04:11:50.038Z,9.278367
2022-08-20T04:12:52.819Z,9.278441
2022-08-20T04:13:49.960Z,9.278331
2022-08-20T04:14:49.915Z,9.278342
2022-08-20T04:15:49.925Z,9.278267
2022-08-20T04:16:49.890Z,9.278372
2022-08-20T04:17:49.952Z,9.278218
2022-08-20T04:18:56.227Z,9.278275
2022-08-20T04:19:50.840Z,9.278201
2022-08-20T04:20:49.811Z,9.278222
2022-08-20T04:21:49.910Z,9.278263
2022-08-20T04:22:58.478Z,9.278192
2022-08-20T04:23:50.800Z,9.278258
2022-08-20T04:24:49.747Z,9.278307
2022-08-20T04:25:49.734Z,9.278326
2022-08-20T04:26:49.707Z,9.278285
2022-08-20T04:27:49.698Z,9.278263
2022-08-20T04:28:49.708Z,9.278212
2022-08-20T04:29:49.663Z,9.278354
2022-08-20T04:30:51.814Z,9.278311
2022-08-20T04:31:49.624Z,9.278311
2022-08-20T04:32:49.641Z,9.278169
2022-08-20T04:33:49.619Z,9.278378
2022-08-20T04:34:49.595Z,9.278318
2022-08-20T04:35:49.555Z,9.278338
2022-08-20T04:36:49.544Z,9.278389
2022-08-20T04:37:49.554Z,9.278204
2022-08-20T04:38:50.924Z,9.278255
2022-08-20T04:39:49.527Z,9.278280
2022-08-20T04:40:49.475Z,9.278254
2022-08-20T04:41:49.443Z,9.278329
2022-08-20T04:42:49.763Z,9.278269
2022-08-20T04:43:49.457Z,9.278195
2022-08-20T04:44:49.395Z,9.278303
2022-08-20T04:45:49.376Z,9.278378
2022-08-20T04:46:49.370Z,9.278285
2022-08-20T04:47:49.430Z,9.278331
2022-08-20T04:48:50.423Z,9.278218
2022-08-20T04:49:49.305Z,9.278222
2022-08-20T04:50:49.330Z,9.278287
2022-08-20T04:51:49.367Z,9.278182
2022-08-20T04:52:49.306Z,9.278294
2022-08-20T04:53:51.755Z,9.278334
2022-08-20T04:54:49.281Z,9.278224
2022-08-20T04:55:49.238Z,9.278383
2022-08-20T04:56:49.195Z,9.278270
2022-08-20T04:57:49.208Z,9.278306
2022-08-20T04:58:49.191Z,9.278352
2022-08-20T04:59:49.147Z,9.278329
2022-08-20T05:00:49.165Z,9.278275
2022-08-20T05:01:49.115Z,9.278285
2022-08-20T05:02:49.280Z,9.278356
2022-08-20T05:03:49.101Z,9.278236
2022-08-20T05:04:49.046Z,9.278274
2022-08-20T05:05:49.065Z,9.278260
2022-08-20T05:06:49.012Z,9.278302
2022-08-20T05:07:49.077Z,9.278357
2022-08-20T05:08:49.012Z,9.278300
2022-08-20T05:09:48.985Z,9.278352
2022-08-20T05:10:48.939Z,9.278424
2022-08-20T05:11:48.929Z,9.278382
2022-08-20T05:12:56.965Z,9.278397
2022-08-20T05:13:49.936Z,9.278346
2022-08-20T05:14:48.868Z,9.278370
2022-08-20T05:15:48.871Z,9.278335
2022-08-20T05:16:48.883Z,9.278367
2022-08-20T05:17:48.841Z,9.278360
2022-08-20T05:18:52.418Z,9.278350
2022-08-20T05:19:48.780Z,9.278223
2022-08-20T05:20:48.777Z,9.278229
2022-08-20T05:21:48.748Z,9.278343
2022-08-20T05:22:49.581Z,9.278397
2022-08-20T05:23:48.733Z,9.278267
2022-08-20T05:24:48.719Z,9.278358
2022-08-20T05:25:48.674Z,9.278245
2022-08-20T05:26:48.657Z,9.278344
2022-08-20T05:27:48.729Z,9.278324
2022-08-20T05:28:57.854Z,9.278339
2022-08-20T05:29:49.623Z,9.278370
2022-08-20T05:30:48.594Z,9.278351
2022-08-20T05:31:48.573Z,9.278284
2022-08-20T05:32:48.580Z,9.278263
2022-08-20T05:33:48.581Z,9.278330
2022-08-20T05:34:48.521Z,9.278362
2022-08-20T05:35:48.508Z,9.278371
2022-08-20T05:36:49.303Z,9.278378
2022-08-20T05:37:48.476Z,9.278369
2022-08-20T05:38:49.595Z,9.278342
2022-08-20T05:39:48.444Z,9.278308
2022-08-20T05:40:48.423Z,9.278353
2022-08-20T05:41:48.388Z,9.278339
2022-08-20T05:42:48.425Z,9.278380
2022-08-20T05:43:48.392Z,9.278285
2022-08-20T05:44:48.349Z,9.278262
2022-08-20T05:45:48.348Z,9.278257
2022-08-20T05:46:48.313Z,9.278284
2022-08-20T05:47:48.339Z,9.278265
2022-08-20T05:48:49.322Z,9.278289
2022-08-20T05:49:48.342Z,9.278304
2022-08-20T05:50:48.240Z,9.278286
2022-08-20T05:51:48.227Z,9.278281
2022-08-20T05:52:48.253Z,9.278280
2022-08-20T05:53:48.263Z,9.278255
2022-08-20T05:54:48.181Z,9.278259
2022-08-20T05:55:48.170Z,9.278219
2022-08-20T05:56:48.145Z,9.278229
2022-08-20T05:57:48.125Z,9.278249
2022-08-20T05:58:48.139Z,9.278187
2022-08-20T05:59:48.098Z,9.278206
2022-08-20T06:00:48.132Z,9.278230
2022-08-20T06:01:48.059Z,9.278250
2022-08-20T06:02:48.068Z,9.278285
2022-08-20T06:03:48.057Z,9.278327
2022-08-20T06:04:48.014Z,9.278263
2022-08-20T06:05:48.986Z,9.278245
2022-08-20T06:06:48.038Z,9.278225
2022-08-20T06:07:47.952Z,9.278183
2022-08-20T06:08:47.990Z,9.278224
2022-08-20T06:09:47.926Z,9.278247
2022-08-20T06:10:47.929Z,9.278206
2022-08-20T06:11:47.914Z,9.278186
2022-08-20T06:12:47.889Z,9.278198
2022-08-20T06:13:47.877Z,9.278188
2022-08-20T06:14:47.835Z,9.278139
2022-08-20T06:15:47.817Z,9.278200
2022-08-20T06:16:57.994Z,9.278233
2022-08-20T06:17:58.227Z,9.278304
2022-08-20T06:18:48.790Z,9.278221
2022-08-20T06:19:47.741Z,9.278244
2022-08-20T06:20:47.741Z,9.278135
2022-08-20T06:21:47.717Z,9.278202
2022-08-20T06:22:47.684Z,9.278278
2022-08-20T06:23:57.295Z,9.278318
2022-08-20T06:24:48.670Z,9.278302
2022-08-20T06:25:47.634Z,9.278301
2022-08-20T06:26:47.615Z,9.278243
2022-08-20T06:27:47.630Z,9.278326
2022-08-20T06:28:47.633Z,9.278328
2022-08-20T06:29:47.585Z,9.278206
2022-08-20T06:30:47.556Z,9.278162
2022-08-20T06:31:47.544Z,9.278177
2022-08-20T06:32:47.601Z,9.278235
2022-08-20T06:33:47.560Z,9.278189
2022-08-20T06:34:50.364Z,9.278154
2022-08-20T06:35:47.474Z,9.278164
2022-08-20T06:36:47.444Z,9.278155
2022-08-20T06:37:47.429Z,9.278135
2022-08-20T06:38:47.451Z,9.278132
2022-08-20T06:39:47.439Z,9.278206
2022-08-20T06:40:47.408Z,9.278211
2022-08-20T06:41:47.356Z,9.278199
2022-08-20T06:42:48.696Z,9.278165
2022-08-20T06:43:48.352Z,9.278150
2022-08-20T06:44:47.377Z,9.278107
2022-08-20T06:45:47.278Z,9.278120
2022-08-20T06:46:47.263Z,9.278125
2022-08-20T06:47:47.251Z,9.278034
2022-08-20T06:48:47.303Z,9.277984
2022-08-20T06:49:47.212Z,9.277953
2022-08-20T06:50:47.953Z,9.278054
2022-08-20T06:51:52.089Z,9.278047
2022-08-20T06:52:52.338Z,9.277857
2022-08-20T06:53:47.197Z,9.277905
2022-08-20T06:54:47.164Z,9.277808
2022-08-20T06:55:48.090Z,9.277925
2022-08-20T06:56:47.095Z,9.277791
2022-08-20T06:57:47.072Z,9.278009
2022-08-20T06:58:47.133Z,9.278121
2022-08-20T06:59:48.024Z,9.278193
2022-08-20T07:00:48.084Z,9.278092
2022-08-20T07:01:47.102Z,9.278193
2022-08-20T07:02:47.013Z,9.277963
2022-08-20T07:03:55.359Z,9.277919
2022-08-20T07:04:47.977Z,9.278182
2022-08-20T07:05:46.939Z,9.278277
2022-08-20T07:06:46.958Z,9.278243
2022-08-20T07:07:46.914Z,9.278287
2022-08-20T07:08:46.929Z,9.278213
2022-08-20T07:09:46.853Z,9.278184
2022-08-20T07:10:46.846Z,9.278116
2022-08-20T07:11:46.864Z,9.278126
2022-08-20T07:12:46.856Z,9.278149
2022-08-20T07:13:46.822Z,9.278208
2022-08-20T07:14:46.778Z,9.278270
2022-08-20T07:15:46.779Z,9.278229
2022-08-20T07:16:46.730Z,9.278242
2022-08-20T07:17:46.736Z,9.278239
2022-08-20T07:18:46.745Z,9.278182
2022-08-20T07:19:46.690Z,9.278161
2022-08-20T07:20:46.669Z,9.278073
2022-08-20T07:21:46.657Z,9.278091
2022-08-20T07:22:46.739Z,9.278243
2022-08-20T07:23:46.640Z,9.278284
2022-08-20T07:24:49.138Z,9.278231
2022-08-20T07:25:47.589Z,9.278196
2022-08-20T07:26:46.563Z,9.278242
2022-08-20T07:27:46.558Z,9.278222
2022-08-20T07:28:46.582Z,9.278257
2022-08-20T07:29:46.514Z,9.278249
2022-08-20T07:30:56.197Z,9.278296
2022-08-20T07:31:48.134Z,9.278161
2022-08-20T07:32:46.483Z,9.278177
2022-08-20T07:33:46.465Z,9.278234
2022-08-20T07:34:46.469Z,9.278183
2022-08-20T07:35:46.416Z,9.278227
2022-08-20T07:36:46.404Z,9.278292
2022-08-20T07:37:46.427Z,9.278208
2022-08-20T07:38:46.422Z,9.278137
2022-08-20T07:39:46.350Z,9.278107
2022-08-20T07:40:46.346Z,9.278040
2022-08-20T07:41:49.051Z,9.278001
2022-08-20T07:42:47.311Z,9.278152
2022-08-20T07:43:46.313Z,9.277949
2022-08-20T07:44:46.287Z,9.278312
2022-08-20T07:45:49.805Z,9.278199
2022-08-20T07:46:47.219Z,9.278267
2022-08-20T07:47:46.201Z,9.278271
2022-08-20T07:48:46.215Z,9.278287
2022-08-20T07:49:46.205Z,9.278298
2022-08-20T07:50:46.210Z,9.278321
2022-08-20T07:51:46.136Z,9.278333
2022-08-20T07:52:46.118Z,9.278307
2022-08-20T07:53:46.116Z,9.278242
2022-08-20T07:54:46.134Z,9.278251
2022-08-20T07:55:58.736Z,9.278298
2022-08-20T07:56:47.059Z,9.278367
2022-08-20T07:57:46.039Z,9.278315
2022-08-20T07:58:46.014Z,9.278281
2022-08-20T07:59:46.047Z,9.278222
2022-08-20T08:00:46.000Z,9.278276
2022-08-20T08:01:46.075Z,9.278203
2022-08-20T08:02:46.020Z,9.278206
2022-08-20T08:03:49.928Z,9.278158
2022-08-20T08:04:45.952Z,9.278281
2022-08-20T08:05:45.905Z,9.278190
2022-08-20T08:06:45.898Z,9.278065
2022-08-20T08:07:45.891Z,9.278242
2022-08-20T08:08:45.860Z,9.278299
2022-08-20T08:09:45.893Z,9.278310
2022-08-20T08:10:45.826Z,9.278302
2022-08-20T08:11:47.725Z,9.278260
2022-08-20T08:12:46.787Z,9.278081
2022-08-20T08:13:45.769Z,9.278018
2022-08-20T08:14:45.777Z,9.278093
2022-08-20T08:15:45.764Z,9.278178
2022-08-20T08:16:45.800Z,9.278351
2022-08-20T08:17:45.716Z,9.278327
2022-08-20T08:18:45.698Z,9.278471
2022-08-20T08:19:45.703Z,9.278383
2022-08-20T08:20:46.939Z,9.278461
2022-08-20T08:21:45.759Z,9.278398
2022-08-20T08:22:45.653Z,9.278344
2022-08-20T08:23:45.700Z,9.278251
2022-08-20T08:24:56.702Z,9.278327
2022-08-20T08:25:46.589Z,9.278267
2022-08-20T08:26:45.573Z,9.278598
2022-08-20T08:27:45.661Z,9.278575
2022-08-20T08:28:46.583Z,9.278489
2022-08-20T08:29:45.555Z,9.278532
2022-08-20T08:30:45.502Z,9.278370
2022-08-20T08:31:45.565Z,9.278321
2022-08-20T08:32:45.564Z,9.278376
2022-08-20T08:33:45.600Z,9.278377
2022-08-20T08:34:45.502Z,9.278353
2022-08-20T08:35:45.432Z,9.278391
2022-08-20T08:36:45.449Z,9.278443
2022-08-20T08:37:45.392Z,9.278510
2022-08-20T08:38:45.484Z,9.278453
2022-08-20T08:39:45.418Z,9.278280
2022-08-20T08:40:45.329Z,9.278170
2022-08-20T08:41:45.403Z,9.278326
2022-08-20T08:42:45.297Z,9.278363
2022-08-20T08:43:45.382Z,9.278313
2022-08-20T08:44:45.295Z,9.278367
2022-08-20T08:45:45.302Z,9.278320
2022-08-20T08:46:45.228Z,9.278356
2022-08-20T08:47:45.211Z,9.278500
2022-08-20T08:48:45.250Z,9.278487
2022-08-20T08:49:45.206Z,9.278434
2022-08-20T08:50:54.164Z,9.278580
2022-08-20T08:51:47.156Z,9.278619
2022-08-20T08:52:45.210Z,9.278678
2022-08-20T08:53:45.115Z,9.278630
2022-08-20T08:54:45.124Z,9.278547
2022-08-20T08:55:45.074Z,9.278483
2022-08-20T08:56:50.093Z,9.278409
2022-08-20T08:57:46.045Z,9.278374
2022-08-20T08:58:45.126Z,9.278365
2022-08-20T08:59:55.037Z,9.278397
2022-08-20T09:00:52.770Z,9.278370
2022-08-20T09:01:54.243Z,9.278351
2022-08-20T09:02:46.020Z,9.278341
2022-08-20T09:03:45.060Z,9.278351
2022-08-20T09:04:44.983Z,9.278335
2022-08-20T09:05:44.926Z,9.278279
2022-08-20T09:06:44.924Z,9.278298
2022-08-20T09:07:44.918Z,9.278338
2022-08-20T09:08:44.942Z,9.278301
2022-08-20T09:09:44.906Z,9.278381
2022-08-20T09:10:44.858Z,9.278350
2022-08-20T09:11:44.828Z,9.278382
2022-08-20T09:12:47.758Z,9.278322
2022-08-20T09:13:45.806Z,9.278317
2022-08-20T09:14:44.834Z,9.278351
2022-08-20T09:15:44.783Z,9.278296
2022-08-20T09:16:53.111Z,9.278369
2022-08-20T09:17:45.738Z,9.278358
2022-08-20T09:18:44.808Z,9.278419
2022-08-20T09:19:44.762Z,9.278320
2022-08-20T09:20:44.776Z,9.278376
2022-08-20T09:21:44.684Z,9.278390
2022-08-20T09:22:44.652Z,9.278374
2022-08-20T09:23:44.646Z,9.278517
2022-08-20T09:24:44.665Z,9.278357
2022-08-20T09:25:44.615Z,9.278316
2022-08-20T09:26:44.607Z,9.278313
2022-08-20T09:27:44.578Z,9.278358
2022-08-20T09:28:47.033Z,9.278333
2022-08-20T09:29:45.687Z,9.278400
2022-08-20T09:30:44.535Z,9.278394
2022-08-20T09:31:44.526Z,9.278379
2022-08-20T09:32:44.622Z,9.278318
2022-08-20T09:33:44.524Z,9.278263
2022-08-20T09:34:44.541Z,9.278237
2022-08-20T09:35:44.519Z,9.278214
2022-08-20T09:36:44.443Z,9.278234
2022-08-20T09:37:44.439Z,9.278192
2022-08-20T09:38:44.409Z,9.278232
2022-08-20T09:39:44.464Z,9.278260
2022-08-20T09:40:44.392Z,9.278225
2022-08-20T09:41:44.374Z,9.278217
2022-08-20T09:42:44.422Z,9.278238
2022-08-20T09:43:44.337Z,9.278287
2022-08-20T09:44:44.349Z,9.278339
2022-08-20T09:45:44.301Z,9.278359
2022-08-20T09:46:44.290Z,9.278383
2022-08-20T09:47:55.445Z,9.278345
2022-08-20T09:48:45.272Z,9.278296
2022-08-20T09:49:44.321Z,9.278173
2022-08-20T09:50:44.232Z,9.278377
2022-08-20T09:51:44.274Z,9.278302
2022-08-20T09:52:45.267Z,9.278258
2022-08-20T09:53:44.189Z,9.278273
2022-08-20T09:54:46.537Z,9.278301
2022-08-20T09:55:44.146Z,9.278329
2022-08-20T09:56:44.224Z,9.278310
2022-08-20T09:57:44.128Z,9.278312
2022-08-20T09:58:44.120Z,9.278297
2022-08-20T09:59:44.159Z,9.278301
2022-08-20T10:00:44.082Z,9.278309
2022-08-20T10:01:44.137Z,9.278358
2022-08-20T10:02:44.103Z,9.278383
2022-08-20T10:03:44.029Z,9.278383
2022-08-20T10:04:44.055Z,9.278347
2022-08-20T10:05:44.003Z,9.278298
2022-08-20T10:06:43.992Z,9.278294
2022-08-20T10:07:43.999Z,9.278262
2022-08-20T10:08:43.955Z,9.278324
2022-08-20T10:09:43.997Z,9.278275
2022-08-20T10:10:43.921Z,9.278355
2022-08-20T10:11:43.905Z,9.278332
2022-08-20T10:12:43.918Z,9.278318
2022-08-20T10:13:43.923Z,9.278334
2022-08-20T10:14:43.946Z,9.278308
2022-08-20T10:15:43.860Z,9.278299
2022-08-20T10:16:43.839Z,9.278294
2022-08-20T10:17:43.830Z,9.278231
2022-08-20T10:18:43.810Z,9.278255
2022-08-20T10:19:43.819Z,9.278374
2022-08-20T10:20:43.785Z,9.278323
2022-08-20T10:21:43.771Z,9.278375
2022-08-20T10:22:43.775Z,9.278358
2022-08-20T10:23:43.746Z,9.278412
2022-08-20T10:24:43.777Z,9.278218
2022-08-20T10:25:43.706Z,9.278223
2022-08-20T10:26:43.702Z,9.278215
2022-08-20T10:27:43.705Z,9.278268
2022-08-20T10:28:43.671Z,9.278317
2022-08-20T10:29:46.871Z,9.278402
2022-08-20T10:30:44.646Z,9.278479
2022-08-20T10:31:43.647Z,9.278475
2022-08-20T10:32:43.742Z,9.278459
2022-08-20T10:33:43.605Z,9.278415
2022-08-20T10:34:43.606Z,9.278402
2022-08-20T10:35:43.578Z,9.278406
2022-08-20T10:36:43.562Z,9.278382
2022-08-20T10:37:43.548Z,9.278418
2022-08-20T10:38:43.540Z,9.278430
2022-08-20T10:39:43.655Z,9.278373
2022-08-20T10:40:43.511Z,9.278363
2022-08-20T10:41:44.495Z,9.278362
2022-08-20T10:42:43.521Z,9.278302
2022-08-20T10:43:43.470Z,9.278373
2022-08-20T10:44:43.472Z,9.278316
2022-08-20T10:45:43.433Z,9.278298
2022-08-20T10:46:43.442Z,9.278431
2022-08-20T10:47:43.395Z,9.278199
2022-08-20T10:48:43.388Z,9.278144
2022-08-20T10:49:43.403Z,9.278341
2022-08-20T10:50:43.356Z,9.278244
2022-08-20T10:51:43.357Z,9.278352
2022-08-20T10:52:43.336Z,9.278314
2022-08-20T10:53:43.321Z,9.278241
2022-08-20T10:54:43.328Z,9.278235
2022-08-20T10:55:43.294Z,9.278354
2022-08-20T10:56:43.290Z,9.278361
2022-08-20T10:57:43.514Z,9.278364
2022-08-20T10:58:43.233Z,9.278363
2022-08-20T10:59:43.256Z,9.278324
2022-08-20T11:00:43.226Z,9.278350
2022-08-20T11:01:43.220Z,9.278437
2022-08-20T11:02:43.248Z,9.278433
2022-08-20T11:03:43.160Z,9.278438
2022-08-20T11:04:43.199Z,9.278115
2022-08-20T11:05:43.129Z,9.278215
2022-08-20T11:06:43.128Z,9.278137
2022-08-20T11:07:50.723Z,9.278254
2022-08-20T11:08:44.140Z,9.278480
2022-08-20T11:09:43.099Z,9.278528
2022-08-20T11:10:43.056Z,9.278539
2022-08-20T11:11:43.053Z,9.278554
2022-08-20T11:12:45.520Z,9.278418
2022-08-20T11:13:43.043Z,9.278470
2022-08-20T11:14:43.025Z,9.278360
2022-08-20T11:15:43.001Z,9.278357
2022-08-20T11:16:42.966Z,9.278381
2022-08-20T11:17:42.941Z,9.278412
2022-08-20T11:18:47.393Z,9.278390
2022-08-20T11:19:43.983Z,9.278413
2022-08-20T11:20:42.904Z,9.278419
2022-08-20T11:21:42.877Z,9.278358
2022-08-20T11:22:42.914Z,9.278337
2022-08-20T11:23:42.847Z,9.278355
2022-08-20T11:24:42.876Z,9.278361
2022-08-20T11:25:42.890Z,9.278381
2022-08-20T11:26:42.805Z,9.278374
2022-08-20T11:27:42.787Z,9.278394
2022-08-20T11:28:42.771Z,9.278390
2022-08-20T11:29:42.825Z,9.278338
2022-08-20T11:30:42.729Z,9.278352
2022-08-20T11:31:42.734Z,9.278435
2022-08-20T11:32:42.783Z,9.278486
2022-08-20T11:33:42.687Z,9.278444
2022-08-20T11:34:42.712Z,9.278440
2022-08-20T11:35:48.314Z,9.278422
2022-08-20T11:36:44.647Z,9.278415
2022-08-20T11:37:42.644Z,9.278504
2022-08-20T11:38:42.614Z,9.278386
2022-08-20T11:39:42.671Z,9.278324
2022-08-20T11:40:42.599Z,9.278337
2022-08-20T11:41:45.839Z,9.278304
2022-08-20T11:43:04.411Z,9.278358
2022-08-20T11:43:59.499Z,9.278326
2022-08-20T11:44:44.557Z,9.278296